Time;durP1;ratioP1;P1;durP2;ratioP2;P2;SDS_P1;SDS_P2;PMS_P1;PMS_P2;Temp;Humidity;BMP_temperature;BMP_pressure;BME280_temperature;BME280_humidity;BME280_pressure;Samples;Min_cycle;Max_cycle;Signal;HPM_P1;HPM_P2
2022/04/28 00:01:11;;;;;;;10.30;5.78;;;8.80;95.60;;;;;;6252096;28;20045;-79
2022/04/28 00:04:12;;;;;;;11.90;5.78;;;8.70;95.70;;;;;;6234082;28;20419;-79
2022/04/28 00:07:14;;;;;;;8.23;5.90;;;8.70;95.80;;;;;;6227484;28;20048;-80
2022/04/28 00:10:16;;;;;;;8.88;5.53;;;8.70;95.80;;;;;;6226924;28;20053;-79
2022/04/28 00:13:20;;;;;;;11.05;6.05;;;8.60;95.90;;;;;;6219411;28;20495;-80
2022/04/28 00:16:22;;;;;;;7.35;5.50;;;8.60;95.90;;;;;;6227225;28;20050;-80
2022/04/28 00:19:24;;;;;;;12.32;5.57;;;8.60;96.00;;;;;;6227732;28;20522;-80
2022/04/28 00:22:25;;;;;;;8.30;5.55;;;8.60;95.90;;;;;;6228400;28;20050;-80
2022/04/28 00:25:27;;;;;;;11.85;6.32;;;8.60;96.00;;;;;;6254440;22;20076;-82
2022/04/28 00:28:30;;;;;;;8.02;6.18;;;8.60;96.00;;;;;;6250522;28;20049;-84
2022/04/28 00:31:32;;;;;;;7.57;5.38;;;8.60;96.40;;;;;;6250434;28;20047;-82
2022/04/28 00:34:34;;;;;;;9.82;6.53;;;8.50;96.10;;;;;;6250361;28;20045;-82
2022/04/28 00:37:36;;;;;;;10.20;6.80;;;8.50;96.10;;;;;;6250560;28;20123;-81
2022/04/28 00:40:37;;;;;;;12.35;7.45;;;8.60;96.50;;;;;;6250474;28;20100;-82
2022/04/28 00:43:51;;;;;;;10.13;6.85;;;8.60;96.30;;;;;;6250550;28;20041;-83
2022/04/28 00:46:53;;;;;;;12.30;6.38;;;8.60;96.60;;;;;;6250667;28;20049;-84
2022/04/28 00:53:15;;;;;;;8.48;6.35;;;8.60;96.30;;;;;;6250283;28;20041;-82
2022/04/28 00:56:17;;;;;;;9.75;6.60;;;8.60;96.20;;;;;;6251236;28;20529;-81
2022/04/28 00:59:20;;;;;;;9.80;6.10;;;8.60;96.20;;;;;;6251650;28;20097;-82
2022/04/28 01:02:22;;;;;;;7.53;5.68;;;8.50;96.20;;;;;;6250894;28;20053;-83
2022/04/28 01:05:23;;;;;;;9.65;6.78;;;8.50;96.10;;;;;;6218202;28;20471;-83
2022/04/28 01:08:25;;;;;;;11.45;7.38;;;8.40;96.10;;;;;;6204829;28;20097;-83
2022/04/28 01:11:28;;;;;;;9.35;6.28;;;8.40;96.20;;;;;;6203700;28;20070;-82
2022/04/28 01:14:31;;;;;;;8.10;5.10;;;8.40;96.60;;;;;;6201324;28;20130;-81
2022/04/28 01:17:32;;;;;;;11.25;6.05;;;8.30;96.40;;;;;;6204302;28;20515;-83
2022/04/28 01:20:34;;;;;;;8.73;5.93;;;8.30;96.60;;;;;;6203383;28;20050;-83
2022/04/28 01:23:38;;;;;;;10.05;6.63;;;8.30;96.50;;;;;;6203154;28;20066;-82
2022/04/28 01:26:41;;;;;;;11.13;7.05;;;8.30;96.50;;;;;;6203793;28;20055;-82
2022/04/28 01:29:43;;;;;;;9.27;6.13;;;8.20;96.80;;;;;;6202450;28;20528;-82
2022/04/28 01:32:45;;;;;;;10.68;7.00;;;8.20;96.60;;;;;;6200918;28;20055;-82
2022/04/28 01:35:47;;;;;;;14.70;7.72;;;8.20;96.60;;;;;;6201762;28;20093;-81
2022/04/28 01:38:50;;;;;;;12.93;6.85;;;8.10;96.70;;;;;;6201428;28;20129;-83
2022/04/28 01:41:52;;;;;;;8.65;6.20;;;8.10;96.80;;;;;;6203237;28;20058;-82
2022/04/28 01:44:53;;;;;;;12.63;6.53;;;8.10;96.70;;;;;;6201271;28;20047;-83
2022/04/28 01:47:55;;;;;;;9.40;5.88;;;8.00;96.70;;;;;;6201086;28;20043;-82
2022/04/28 01:57:39;;;;;;;8.77;6.00;;;7.90;96.70;;;;;;6206478;28;20046;-82
2022/04/28 02:00:41;;;;;;;9.50;5.57;;;7.90;96.80;;;;;;6206630;28;20046;-82
2022/04/28 02:03:42;;;;;;;11.65;6.22;;;7.80;96.80;;;;;;6205077;28;20098;-82
2022/04/28 02:06:44;;;;;;;10.45;6.03;;;7.80;96.80;;;;;;6226148;28;20130;-82
2022/04/28 02:09:47;;;;;;;10.50;6.65;;;7.80;96.80;;;;;;6229921;28;20144;-81
2022/04/28 02:12:50;;;;;;;8.40;5.90;;;7.80;96.70;;;;;;6229850;28;20056;-83
2022/04/28 02:15:52;;;;;;;13.27;6.35;;;7.80;96.80;;;;;;6230562;28;20046;-83
2022/04/28 02:18:54;;;;;;;10.20;6.95;;;7.80;96.90;;;;;;6230202;28;20042;-83
2022/04/28 02:21:55;;;;;;;11.60;7.18;;;7.80;97.00;;;;;;6228691;28;20050;-82
2022/04/28 02:24:59;;;;;;;7.97;5.65;;;7.80;96.70;;;;;;6227921;28;20045;-82
2022/04/28 02:28:01;;;;;;;8.98;5.82;;;7.70;96.70;;;;;;6227148;28;20519;-82
2022/04/28 02:31:02;;;;;;;8.82;5.57;;;7.70;96.70;;;;;;6228780;28;20189;-82
2022/04/28 02:34:04;;;;;;;9.43;6.22;;;7.60;96.70;;;;;;6228486;28;20046;-82
2022/04/28 02:37:06;;;;;;;10.02;5.72;;;7.60;96.80;;;;;;6228209;28;20045;-82
2022/04/28 02:40:11;;;;;;;11.68;5.88;;;7.50;96.70;;;;;;6230565;28;20058;-82
2022/04/28 02:43:12;;;;;;;8.48;5.82;;;7.50;96.70;;;;;;6231834;28;20054;-83
2022/04/28 02:46:14;;;;;;;9.75;6.07;;;7.50;96.70;;;;;;6232349;28;20050;-83
2022/04/28 02:49:17;;;;;;;10.15;5.97;;;7.50;97.00;;;;;;6231967;28;20563;-82
2022/04/28 02:52:18;;;;;;;13.20;7.15;;;7.50;97.00;;;;;;6231227;28;20046;-82
2022/04/28 02:55:22;;;;;;;10.45;6.90;;;7.40;96.90;;;;;;6231212;28;20061;-82
2022/04/28 02:58:23;;;;;;;12.65;7.03;;;7.30;96.90;;;;;;6232107;28;20049;-81
2022/04/28 03:01:26;;;;;;;12.52;6.57;;;7.20;96.90;;;;;;6231163;28;20511;-83
2022/04/28 03:04:28;;;;;;;10.57;6.97;;;7.10;96.90;;;;;;6231285;28;20046;-82
2022/04/28 03:10:53;;;;;;;12.50;7.85;;;7.10;96.90;;;;;;6209518;28;20049;-83
2022/04/28 03:13:56;;;;;;;13.95;8.15;;;7.00;97.20;;;;;;6230321;28;20045;-82
2022/04/28 03:16:58;;;;;;;14.43;8.77;;;7.10;97.30;;;;;;6230017;28;20052;-82
2022/04/28 03:20:00;;;;;;;12.73;8.23;;;7.10;97.20;;;;;;6229895;28;20172;-82
2022/04/28 03:23:02;;;;;;;12.65;8.32;;;7.10;97.60;;;;;;6228307;28;20054;-81
2022/04/28 03:26:06;;;;;;;15.00;8.40;;;7.20;98.20;;;;;;6229529;28;20180;-81
2022/04/28 03:29:07;;;;;;;10.73;6.60;;;7.30;97.90;;;;;;6230503;28;20060;-82
2022/04/28 03:32:10;;;;;;;14.63;7.78;;;7.30;97.60;;;;;;6231843;28;20054;-83
2022/04/28 03:35:11;;;;;;;11.68;6.95;;;7.30;97.50;;;;;;6228908;28;20149;-82
2022/04/28 03:38:13;;;;;;;12.43;6.85;;;7.40;97.90;;;;;;6228962;28;20411;-80
2022/04/28 03:41:17;;;;;;;16.48;8.50;;;7.30;97.50;;;;;;6228023;28;20045;-81
2022/04/28 03:44:18;;;;;;;15.75;8.73;;;7.40;98.40;;;;;;6227622;28;20539;-80
2022/04/28 03:47:21;;;;;;;12.85;7.43;;;7.50;98.10;;;;;;6229537;28;20067;-80
2022/04/28 03:50:22;;;;;;;15.43;9.05;;;7.60;98.50;;;;;;6229504;28;20411;-79
2022/04/28 03:53:24;;;;;;;16.05;10.45;;;7.60;98.20;;;;;;6228592;28;20229;-81
2022/04/28 03:56:30;;;;;;;18.83;9.88;;;7.70;98.20;;;;;;6228528;28;20137;-81
2022/04/28 03:59:31;;;;;;;15.35;9.63;;;7.70;98.30;;;;;;6228516;28;20045;-80
2022/04/28 04:02:33;;;;;;;13.13;8.48;;;7.80;98.30;;;;;;6227493;28;20563;-80
2022/04/28 04:05:35;;;;;;;15.10;9.55;;;7.90;98.20;;;;;;6226756;28;20048;-80
2022/04/28 04:08:37;;;;;;;17.88;8.75;;;7.90;98.30;;;;;;6205625;28;20047;-80
2022/04/28 04:11:40;;;;;;;16.05;9.77;;;8.00;98.10;;;;;;6202357;28;20057;-80
2022/04/28 04:14:42;;;;;;;16.63;9.43;;;7.90;98.10;;;;;;6202353;28;20699;-79
2022/04/28 04:17:45;;;;;;;14.18;8.70;;;8.00;98.20;;;;;;6202240;28;20052;-80
2022/04/28 04:20:47;;;;;;;16.75;9.55;;;8.00;98.10;;;;;;6209152;28;20451;-80
2022/04/28 04:23:49;;;;;;;16.85;10.30;;;8.10;98.00;;;;;;6209643;28;20742;-80
2022/04/28 04:26:52;;;;;;;15.57;9.45;;;8.10;97.90;;;;;;6208561;28;20420;-80
2022/04/28 04:29:54;;;;;;;15.23;8.98;;;8.20;97.80;;;;;;6209555;28;20050;-80
2022/04/28 04:32:54;;;;;;;14.15;8.65;;;8.20;97.60;;;;;;6205514;28;20579;-80
2022/04/28 04:35:56;;;;;;;15.32;9.27;;;8.20;97.50;;;;;;6207276;28;20046;-80
2022/04/28 04:38:58;;;;;;;12.52;8.57;;;8.20;97.50;;;;;;6206315;28;20082;-80
2022/04/28 04:42:01;;;;;;;13.00;8.80;;;8.30;97.50;;;;;;6254401;28;20053;-81
2022/04/28 04:45:03;;;;;;;15.85;9.75;;;8.30;97.50;;;;;;6260377;28;20045;-80
2022/04/28 04:48:05;;;;;;;14.20;9.10;;;8.40;97.50;;;;;;6246037;28;20070;-80
2022/04/28 04:51:07;;;;;;;16.13;9.40;;;8.50;97.40;;;;;;6211618;28;20050;-80
2022/04/28 04:54:09;;;;;;;15.63;8.82;;;8.70;97.30;;;;;;6200420;28;20060;-80
2022/04/28 04:57:12;;;;;;;16.05;9.20;;;8.80;97.30;;;;;;6198728;28;20462;-80
2022/04/28 05:00:14;;;;;;;25.90;9.50;;;9.00;97.20;;;;;;6199527;28;20171;-80
2022/04/28 05:03:16;;;;;;;25.15;9.20;;;9.20;97.00;;;;;;6198719;28;20046;-80
2022/04/28 05:06:18;;;;;;;18.95;10.85;;;9.40;96.90;;;;;;6199551;28;20046;-81
2022/04/28 05:09:19;;;;;;;17.38;9.35;;;9.60;96.80;;;;;;6212382;28;20046;-79
2022/04/28 05:12:22;;;;;;;11.82;8.38;;;9.80;96.60;;;;;;6223520;28;20048;-80
2022/04/28 05:15:24;;;;;;;12.88;8.30;;;10.00;96.50;;;;;;6223371;28;20523;-80
2022/04/28 05:18:28;;;;;;;19.00;8.50;;;10.20;96.10;;;;;;6225205;28;20037;-80
2022/04/28 05:21:30;;;;;;;14.13;7.20;;;10.40;95.90;;;;;;6224132;28;20124;-80
2022/04/28 05:24:31;;;;;;;13.38;9.15;;;10.70;95.60;;;;;;6223849;28;20052;-80
2022/04/28 05:27:34;;;;;;;13.38;7.90;;;10.90;94.80;;;;;;6223113;28;20049;-80
2022/04/28 05:30:37;;;;;;;10.48;6.80;;;11.20;94.30;;;;;;6224086;28;20073;-80
2022/04/28 05:33:41;;;;;;;10.20;6.65;;;11.30;93.70;;;;;;6225349;28;20046;-80
2022/04/28 05:36:44;;;;;;;8.88;6.10;;;11.50;93.40;;;;;;6223421;28;20062;-80
2022/04/28 05:39:46;;;;;;;8.55;5.63;;;11.70;92.80;;;;;;6224108;28;20061;-80
2022/04/28 05:46:09;;;;;;;14.30;6.30;;;12.60;92.60;;;;;;6226483;28;20054;-80
2022/04/28 05:49:11;;;;;;;9.20;5.47;;;13.70;90.80;;;;;;6223827;28;20042;-80
2022/04/28 05:52:13;;;;;;;6.97;5.32;;;14.60;88.00;;;;;;6228243;28;20050;-81
2022/04/28 05:55:15;;;;;;;7.20;5.25;;;15.30;86.20;;;;;;6224753;28;20060;-81
2022/04/28 05:58:18;;;;;;;10.23;4.80;;;16.40;82.60;;;;;;6227935;28;20057;-81
2022/04/28 06:01:20;;;;;;;6.28;4.90;;;18.30;75.30;;;;;;6227927;28;20472;-81
2022/04/28 06:04:21;;;;;;;8.65;5.20;;;19.90;69.30;;;;;;6225535;28;20056;-81
2022/04/28 06:07:23;;;;;;;8.30;4.32;;;21.70;64.20;;;;;;6227742;28;20046;-81
2022/04/28 06:10:25;;;;;;;8.35;4.55;;;23.10;58.40;;;;;;6214080;28;20503;-81
2022/04/28 06:13:28;;;;;;;6.07;4.82;;;23.60;55.00;;;;;;6225461;28;20050;-80
2022/04/28 06:16:30;;;;;;;7.40;4.53;;;23.90;53.00;;;;;;6229194;28;20042;-81
2022/04/28 06:19:32;;;;;;;11.23;4.97;;;23.90;52.60;;;;;;6229926;28;20046;-81
2022/04/28 06:22:34;;;;;;;9.25;4.75;;;23.50;51.20;;;;;;6232345;28;20136;-81
2022/04/28 06:25:36;;;;;;;6.05;4.28;;;22.80;52.60;;;;;;6259837;22;20436;-82
2022/04/28 06:28:39;;;;;;;10.70;4.57;;;22.20;54.10;;;;;;6280052;28;20049;-82
2022/04/28 06:31:41;;;;;;;6.25;4.28;;;21.70;54.60;;;;;;6281083;28;20072;-83
2022/04/28 06:34:43;;;;;;;7.63;4.10;;;21.20;56.10;;;;;;6280121;28;20049;-83
2022/04/28 06:37:45;;;;;;;12.15;4.50;;;20.70;57.20;;;;;;6278742;28;20122;-82
2022/04/28 06:40:46;;;;;;;5.13;3.97;;;20.40;57.00;;;;;;6280349;28;20616;-82
2022/04/28 06:43:49;;;;;;;6.53;4.72;;;20.40;57.40;;;;;;6280347;28;20040;-83
2022/04/28 06:46:51;;;;;;;8.85;4.18;;;20.80;56.50;;;;;;6280758;28;20049;-83
2022/04/28 06:49:53;;;;;;;7.13;3.88;;;21.20;55.30;;;;;;6281567;28;20049;-83
2022/04/28 06:52:55;;;;;;;7.47;4.50;;;21.70;54.70;;;;;;6278889;28;20178;-83
2022/04/28 06:55:56;;;;;;;5.80;4.20;;;22.60;51.10;;;;;;6280450;28;20529;-83
2022/04/28 06:58:59;;;;;;;6.53;3.95;;;23.20;49.60;;;;;;6280606;28;20049;-82
2022/04/28 07:02:01;;;;;;;7.57;4.30;;;24.30;47.50;;;;;;6281290;28;20045;-83
2022/04/28 07:05:03;;;;;;;6.35;3.90;;;25.20;45.10;;;;;;6279547;28;20048;-83
2022/04/28 07:08:06;;;;;;;7.75;4.88;;;25.90;43.90;;;;;;6280552;28;20049;-83
2022/04/28 07:11:08;;;;;;;6.22;3.45;;;26.70;42.50;;;;;;6260676;28;20120;-83
2022/04/28 07:14:11;;;;;;;6.82;4.10;;;27.90;41.30;;;;;;6255980;28;20056;-84
2022/04/28 07:17:13;;;;;;;4.53;3.83;;;28.70;38.70;;;;;;6259291;28;20065;-83
2022/04/28 07:20:14;;;;;;;6.88;3.28;;;28.90;37.40;;;;;;6260982;28;20056;-83
2022/04/28 07:23:16;;;;;;;7.22;3.80;;;28.50;37.10;;;;;;6220441;28;20728;-82
2022/04/28 07:26:18;;;;;;;5.28;3.80;;;28.60;37.20;;;;;;6244761;28;20124;-81
2022/04/28 07:29:21;;;;;;;7.13;3.90;;;29.10;35.70;;;;;;6265800;28;20463;-82
2022/04/28 07:32:23;;;;;;;4.05;3.08;;;29.00;36.10;;;;;;6250326;28;20105;-83
2022/04/28 07:35:25;;;;;;;5.15;3.85;;;29.60;34.90;;;;;;6256594;28;20278;-81
2022/04/28 07:38:27;;;;;;;6.35;4.10;;;29.80;34.30;;;;;;6259069;28;20061;-83
2022/04/28 07:41:28;;;;;;;4.60;3.63;;;29.70;34.00;;;;;;6258157;28;20049;-80
2022/04/28 07:44:32;;;;;;;8.40;4.03;;;29.90;34.60;;;;;;6240848;28;20054;-81
2022/04/28 07:47:33;;;;;;;5.97;3.65;;;30.60;33.30;;;;;;6230702;28;20046;-84
2022/04/28 07:50:35;;;;;;;8.30;3.28;;;30.20;33.40;;;;;;6254234;28;20056;-83
2022/04/28 07:53:38;;;;;;;4.30;3.30;;;29.80;34.00;;;;;;6248589;28;20054;-83
2022/04/28 07:56:40;;;;;;;4.60;3.38;;;29.80;33.50;;;;;;6268194;28;20049;-81
2022/04/28 07:59:43;;;;;;;4.05;2.72;;;30.10;33.40;;;;;;6277697;28;20044;-80
2022/04/28 08:02:45;;;;;;;3.35;2.70;;;30.60;33.50;;;;;;6279606;28;20128;-82
2022/04/28 08:05:46;;;;;;;6.57;3.33;;;31.20;33.00;;;;;;6277442;28;20045;-81
2022/04/28 08:08:48;;;;;;;4.60;3.22;;;31.70;32.20;;;;;;6278271;28;20132;-83
2022/04/28 08:11:50;;;;;;;3.83;2.90;;;32.40;32.30;;;;;;6255898;28;20049;-83
2022/04/28 08:14:53;;;;;;;5.55;2.70;;;32.30;31.10;;;;;;6228089;28;20046;-83
2022/04/28 08:17:55;;;;;;;3.33;2.65;;;31.30;31.00;;;;;;6229033;28;20079;-82
2022/04/28 08:20:58;;;;;;;4.65;2.60;;;30.90;32.00;;;;;;6232004;28;20050;-80
2022/04/28 08:24:00;;;;;;;5.00;2.08;;;30.80;32.70;;;;;;6242182;28;20052;-82
2022/04/28 08:27:01;;;;;;;4.35;2.67;;;31.00;32.20;;;;;;6270825;28;20180;-81
2022/04/28 08:30:06;;;;;;;4.90;2.63;;;30.90;31.70;;;;;;6279788;28;20145;-81
2022/04/28 08:33:08;;;;;;;3.88;2.40;;;31.00;32.30;;;;;;6279319;28;20056;-81
2022/04/28 08:36:09;;;;;;;6.13;1.95;;;31.40;31.30;;;;;;6278123;28;20127;-82
2022/04/28 08:39:12;;;;;;;2.13;1.77;;;31.40;30.00;;;;;;6277309;28;20053;-82
2022/04/28 08:42:15;;;;;;;3.25;1.77;;;31.20;29.60;;;;;;6278686;28;20654;-82
2022/04/28 08:45:22;;;;;;;11.43;1.52;;;31.20;29.50;;;;;;6276073;28;20045;-82
2022/04/28 08:48:24;;;;;;;6.18;1.83;;;31.30;29.60;;;;;;6277253;28;20048;-82
2022/04/28 08:51:26;;;;;;;2.33;1.00;;;31.60;29.90;;;;;;6277411;28;20051;-81
2022/04/28 08:54:29;;;;;;;2.00;1.33;;;31.80;28.50;;;;;;6270159;28;20048;-83
2022/04/28 08:57:33;;;;;;;6.53;1.60;;;31.10;27.90;;;;;;6268435;28;20041;-80
2022/04/28 09:00:38;;;;;;;2.88;1.70;;;29.90;28.50;;;;;;6276142;28;20418;-80
2022/04/28 09:03:40;;;;;;;2.45;1.60;;;29.10;28.80;;;;;;6277418;28;20045;-82
2022/04/28 09:06:43;;;;;;;2.58;1.50;;;28.90;29.90;;;;;;6278423;28;20570;-81
2022/04/28 09:09:46;;;;;;;2.50;1.48;;;28.90;29.00;;;;;;6275554;28;20041;-82
2022/04/28 09:12:56;;;;;;;1.77;0.88;;;28.90;29.80;;;;;;6250974;28;20085;-82
2022/04/28 09:15:59;;;;;;;1.95;1.67;;;29.30;29.40;;;;;;6228454;28;20045;-81
2022/04/28 09:19:01;;;;;;;3.60;1.55;;;29.60;28.40;;;;;;6226872;28;20077;-82
2022/04/28 09:22:08;;;;;;;1.98;1.50;;;29.50;27.70;;;;;;6228033;28;20049;-80
2022/04/28 09:25:11;;;;;;;2.90;1.35;;;29.20;28.40;;;;;;6247731;28;20045;-81
2022/04/28 09:28:13;;;;;;;2.00;1.50;;;29.10;28.30;;;;;;6271122;28;20045;-81
2022/04/28 09:31:18;;;;;;;2.72;1.85;;;29.10;28.40;;;;;;6275269;28;20056;-82
2022/04/28 09:34:22;;;;;;;3.85;1.60;;;28.90;28.40;;;;;;6276006;28;20407;-82
2022/04/28 09:37:26;;;;;;;2.25;1.08;;;28.80;28.90;;;;;;6276417;28;20115;-81
2022/04/28 09:43:55;;;;;;;2.92;1.67;;;28.20;28.50;;;;;;6230898;28;20491;-81
2022/04/28 09:47:00;;;;;;;3.38;1.30;;;28.30;28.60;;;;;;6253767;28;20053;-81
2022/04/28 09:50:02;;;;;;;3.15;1.67;;;28.40;27.90;;;;;;6257854;28;20534;-81
2022/04/28 09:53:05;;;;;;;1.98;1.20;;;28.30;27.70;;;;;;6256166;28;20176;-80
2022/04/28 09:56:07;;;;;;;3.55;1.45;;;27.80;27.80;;;;;;6262833;28;20072;-81
2022/04/28 09:59:13;;;;;;;2.00;1.48;;;26.90;28.60;;;;;;6281844;28;20049;-81
2022/04/28 10:02:18;;;;;;;4.05;1.40;;;25.90;28.90;;;;;;6282725;28;20045;-80
2022/04/28 10:05:21;;;;;;;2.50;1.50;;;24.80;29.10;;;;;;6282054;28;20040;-80
2022/04/28 10:08:24;;;;;;;1.98;1.27;;;23.80;30.00;;;;;;6282375;28;20045;-81
2022/04/28 10:11:27;;;;;;;4.22;1.30;;;23.50;31.80;;;;;;6281694;28;20052;-80
2022/04/28 10:14:30;;;;;;;2.70;1.48;;;23.60;31.70;;;;;;6253844;28;20409;-81
2022/04/28 10:17:38;;;;;;;1.70;1.00;;;23.90;31.30;;;;;;6256591;28;20049;-81
2022/04/28 10:20:42;;;;;;;1.73;1.00;;;23.70;31.20;;;;;;6257367;28;20045;-81
2022/04/28 10:34:10;;;;;;;3.90;1.20;;;23.80;31.80;;;;;;6258374;28;20084;-81
2022/04/28 10:37:13;;;;;;;2.97;1.30;;;24.10;30.30;;;;;;6258232;28;20075;-81
2022/04/28 10:40:16;;;;;;;2.33;1.30;;;23.90;31.20;;;;;;6257650;28;20079;-82
2022/04/28 10:43:23;;;;;;;1.80;0.98;;;23.90;29.90;;;;;;6257809;28;20056;-80
2022/04/28 10:46:33;;;;;;;1.98;1.00;;;23.50;29.60;;;;;;6258456;28;20455;-79
2022/04/28 10:49:40;;;;;;;2.67;1.00;;;23.30;29.40;;;;;;6257856;28;20049;-83
2022/04/28 10:52:42;;;;;;;1.75;0.90;;;23.40;30.30;;;;;;6259306;28;20056;-83
2022/04/28 10:55:44;;;;;;;6.85;1.13;;;23.70;29.50;;;;;;6257957;28;20041;-82
2022/04/28 10:58:46;;;;;;;4.93;1.50;;;23.40;29.10;;;;;;6256202;28;20064;-84
2022/04/28 11:01:47;;;;;;;6.68;1.23;;;23.60;29.70;;;;;;6258022;28;20049;-80
2022/04/28 11:04:54;;;;;;;1.63;1.45;;;23.50;28.60;;;;;;6258003;28;20109;-81
2022/04/28 11:07:58;;;;;;;1.88;1.02;;;23.30;29.40;;;;;;6257229;28;20077;-80
2022/04/28 11:11:09;;;;;;;2.10;1.00;;;23.40;29.50;;;;;;6257628;28;20056;-82
2022/04/28 11:14:12;;;;;;;2.40;1.70;;;23.20;29.70;;;;;;6245868;28;20054;-83
2022/04/28 11:17:15;;;;;;;3.30;1.40;;;23.00;29.90;;;;;;6231904;28;20050;-81
2022/04/28 11:20:21;;;;;;;3.58;1.40;;;23.20;30.80;;;;;;6231829;28;20061;-82
2022/04/28 11:23:23;;;;;;;1.85;1.05;;;23.10;29.90;;;;;;6238804;28;20088;-80
2022/04/28 11:26:26;;;;;;;2.60;1.20;;;23.40;31.20;;;;;;6266348;28;20502;-80
2022/04/28 11:29:30;;;;;;;3.15;1.20;;;23.70;31.20;;;;;;6280006;28;20060;-82
2022/04/28 11:32:32;;;;;;;7.05;2.00;;;23.90;30.50;;;;;;6279318;28;20053;-80
2022/04/28 11:35:39;;;;;;;2.20;1.58;;;23.90;29.90;;;;;;6279948;28;20490;-83
2022/04/28 11:38:52;;;;;;;2.20;1.48;;;23.80;30.10;;;;;;6280426;28;20052;-80
2022/04/28 11:41:59;;;;;;;3.35;0.77;;;24.00;31.50;;;;;;6280420;28;20052;-82
2022/04/28 11:45:01;;;;;;;3.20;1.33;;;24.30;30.60;;;;;;6264249;28;20524;-82
2022/04/28 11:48:04;;;;;;;1.85;1.30;;;24.40;30.90;;;;;;6254631;28;20414;-84
2022/04/28 11:51:07;;;;;;;4.15;1.48;;;24.50;31.40;;;;;;6255606;28;20060;-81
2022/04/28 11:54:19;;;;;;;1.70;1.20;;;24.40;31.20;;;;;;6251425;28;20053;-83
2022/04/28 11:57:22;;;;;;;2.30;1.30;;;24.60;31.60;;;;;;6260498;28;20045;-81
2022/04/28 12:00:27;;;;;;;3.00;1.13;;;24.70;31.60;;;;;;6254718;28;20046;-81
2022/04/28 12:03:30;;;;;;;3.97;1.27;;;24.30;31.20;;;;;;6254250;28;20109;-82
2022/04/28 12:06:33;;;;;;;1.70;1.30;;;24.20;32.20;;;;;;6255865;28;20057;-82
2022/04/28 12:16:17;;;;;;;2.05;1.40;;;24.30;32.10;;;;;;6240221;28;20038;-80
2022/04/28 12:19:22;;;;;;;2.58;1.40;;;24.30;32.00;;;;;;6228997;28;20077;-80
2022/04/28 12:22:31;;;;;;;6.18;1.70;;;24.60;32.40;;;;;;6230529;28;20045;-80
2022/04/28 12:25:38;;;;;;;4.88;1.05;;;24.90;32.40;;;;;;6240978;28;20607;-83
2022/04/28 12:28:41;;;;;;;4.75;1.55;;;24.80;31.50;;;;;;6274645;22;20057;-86
2022/04/28 12:31:44;;;;;;;2.13;1.48;;;24.80;32.20;;;;;;6263792;28;20049;-82
2022/04/28 12:34:46;;;;;;;2.97;1.52;;;25.00;31.90;;;;;;6260286;28;20073;-84
2022/04/28 12:37:59;;;;;;;2.45;1.40;;;25.50;32.70;;;;;;6264565;28;20042;-85
2022/04/28 12:41:14;;;;;;;3.33;1.63;;;25.50;32.00;;;;;;6264807;28;20046;-84
2022/04/28 12:44:16;;;;;;;3.85;1.00;;;25.70;30.60;;;;;;6257449;28;20072;-81
2022/04/28 12:47:18;;;;;;;3.25;1.20;;;25.70;31.00;;;;;;6261179;28;20056;-82
2022/04/28 12:50:21;;;;;;;5.65;1.73;;;25.50;31.60;;;;;;6266305;28;20045;-82
2022/04/28 12:53:33;;;;;;;1.50;1.30;;;25.50;31.20;;;;;;6261408;28;20105;-83
2022/04/28 12:56:35;;;;;;;2.85;1.80;;;25.70;31.30;;;;;;6236605;28;20042;-81
2022/04/28 12:59:38;;;;;;;5.22;1.98;;;25.50;31.70;;;;;;6236542;28;20511;-84
2022/04/28 13:02:47;;;;;;;2.47;1.75;;;24.80;32.30;;;;;;6236750;28;20076;-82
2022/04/28 13:05:49;;;;;;;3.10;1.35;;;24.50;32.70;;;;;;6231394;28;20060;-82
2022/04/28 13:08:53;;;;;;;1.73;1.40;;;24.80;33.70;;;;;;6229569;28;20050;-82
2022/04/28 13:11:54;;;;;;;3.63;1.45;;;25.20;32.40;;;;;;6231648;28;20053;-82
2022/04/28 13:14:58;;;;;;;2.13;1.17;;;25.30;32.00;;;;;;6241445;28;20105;-82
2022/04/28 13:18:00;;;;;;;2.83;1.27;;;25.50;31.90;;;;;;6246816;28;20109;-83
2022/04/28 13:21:02;;;;;;;1.38;0.88;;;25.60;31.40;;;;;;6239677;28;20143;-83
2022/04/28 13:24:07;;;;;;;2.15;0.95;;;25.70;31.40;;;;;;6244699;28;20045;-83
2022/04/28 13:27:09;;;;;;;3.40;1.35;;;25.90;31.40;;;;;;6246530;28;20056;-83
2022/04/28 13:30:13;;;;;;;3.83;1.35;;;26.20;31.00;;;;;;6260080;28;20057;-83
2022/04/28 13:33:16;;;;;;;1.83;0.88;;;26.10;30.40;;;;;;6248488;28;20075;-83
2022/04/28 13:36:19;;;;;;;2.15;1.33;;;26.10;29.70;;;;;;6257560;28;20049;-84
2022/04/28 13:39:22;;;;;;;3.03;1.20;;;25.90;29.90;;;;;;6270428;28;20037;-82
2022/04/28 13:42:26;;;;;;;1.40;1.13;;;25.80;30.60;;;;;;6259203;28;20077;-82
2022/04/28 13:45:28;;;;;;;2.00;0.90;;;25.90;30.40;;;;;;6257076;28;20045;-83
2022/04/28 13:48:30;;;;;;;1.48;0.98;;;26.10;31.20;;;;;;6248932;28;20054;-80
2022/04/28 13:51:33;;;;;;;2.50;0.63;;;26.40;31.40;;;;;;6240719;28;20065;-85
2022/04/28 13:54:36;;;;;;;3.88;0.90;;;26.50;29.40;;;;;;6249601;28;20050;-85
2022/04/28 13:57:38;;;;;;;2.35;1.42;;;25.90;30.00;;;;;;6246259;28;20048;-84
2022/04/28 14:00:40;;;;;;;3.05;0.90;;;25.70;30.60;;;;;;6257851;28;20567;-83
2022/04/28 14:03:41;;;;;;;2.65;1.20;;;25.60;29.80;;;;;;6262963;28;20049;-85
2022/04/28 14:06:43;;;;;;;1.92;1.00;;;25.30;30.50;;;;;;6262551;28;20105;-82
2022/04/28 14:09:46;;;;;;;2.58;1.80;;;25.40;31.50;;;;;;6259487;28;20080;-82
2022/04/28 14:12:48;;;;;;;4.03;0.77;;;25.30;31.00;;;;;;6258325;28;20046;-83
2022/04/28 14:15:53;;;;;;;1.92;1.17;;;25.50;31.50;;;;;;6260192;28;20131;-83
2022/04/28 14:18:55;;;;;;;3.92;1.27;;;25.80;30.50;;;;;;6249433;28;20038;-82
2022/04/28 14:21:58;;;;;;;4.70;1.08;;;25.60;30.80;;;;;;6262274;28;20053;-83
2022/04/28 14:25:01;;;;;;;1.60;1.08;;;25.50;31.20;;;;;;6260392;28;20049;-83
2022/04/28 14:28:03;;;;;;;4.10;1.08;;;25.50;31.40;;;;;;6253265;28;20049;-81
2022/04/28 14:31:04;;;;;;;2.20;0.98;;;25.60;31.40;;;;;;6259730;28;20051;-83
2022/04/28 14:34:08;;;;;;;2.00;1.30;;;26.00;31.60;;;;;;6258750;28;20127;-83
2022/04/28 14:37:10;;;;;;;1.75;0.88;;;26.30;30.60;;;;;;6259900;28;20041;-80
2022/04/28 14:40:16;;;;;;;2.58;1.25;;;26.50;30.50;;;;;;6261508;28;20080;-81
2022/04/28 14:43:18;;;;;;;3.15;1.50;;;26.20;30.10;;;;;;6267415;28;20049;-82
2022/04/28 14:46:20;;;;;;;3.03;1.23;;;25.90;30.90;;;;;;6269000;28;20049;-83
2022/04/28 14:52:42;;;;;;;1.90;0.90;;;25.60;31.00;;;;;;6266542;28;20045;-82
2022/04/28 14:55:46;;;;;;;2.80;1.00;;;25.20;32.50;;;;;;6260680;28;20045;-82
2022/04/28 14:58:48;;;;;;;2.20;0.95;;;25.00;31.00;;;;;;6241255;28;20101;-82
2022/04/28 15:01:51;;;;;;;1.60;1.05;;;24.90;31.50;;;;;;6243052;28;20045;-83
2022/04/28 15:04:53;;;;;;;4.57;1.23;;;24.80;32.40;;;;;;6243131;28;20105;-82
2022/04/28 15:07:55;;;;;;;7.80;1.55;;;24.90;32.10;;;;;;6243373;28;20113;-83
2022/04/28 15:10:59;;;;;;;3.83;1.48;;;24.70;32.10;;;;;;6240874;28;20113;-79
2022/04/28 15:14:00;;;;;;;5.32;1.02;;;24.50;32.40;;;;;;6240969;28;20679;-82
2022/04/28 15:17:02;;;;;;;3.63;1.33;;;24.40;32.60;;;;;;6244041;28;20045;-83
2022/04/28 15:20:07;;;;;;;3.78;1.75;;;24.30;32.30;;;;;;6261582;28;20037;-84
2022/04/28 15:23:09;;;;;;;2.17;1.27;;;24.10;33.00;;;;;;6264559;28;20079;-81
2022/04/28 15:26:13;;;;;;;6.32;1.45;;;23.80;32.90;;;;;;6253927;28;20181;-82
2022/04/28 15:29:16;;;;;;;2.33;1.23;;;23.70;33.60;;;;;;6237959;28;20458;-82
2022/04/28 15:32:17;;;;;;;2.78;1.13;;;23.80;33.70;;;;;;6239773;28;20121;-82
2022/04/28 15:35:19;;;;;;;2.08;1.13;;;23.80;33.90;;;;;;6242112;28;20050;-82
2022/04/28 15:38:21;;;;;;;1.75;0.90;;;23.90;33.80;;;;;;6240402;28;20049;-82
2022/04/28 15:41:24;;;;;;;1.27;0.82;;;24.00;33.60;;;;;;6241454;28;20070;-82
2022/04/28 15:44:26;;;;;;;1.27;0.75;;;23.90;33.80;;;;;;6239948;28;20137;-82
2022/04/28 15:47:28;;;;;;;3.67;1.70;;;23.90;33.30;;;;;;6242621;28;20056;-82
2022/04/28 15:50:30;;;;;;;2.75;1.33;;;23.70;33.20;;;;;;6238042;28;20045;-82
2022/04/28 15:53:32;;;;;;;3.53;1.60;;;23.50;33.50;;;;;;6257575;28;20052;-83
2022/04/28 15:56:35;;;;;;;4.05;1.40;;;23.50;33.40;;;;;;6256435;28;20049;-84
2022/04/28 15:59:38;;;;;;;8.63;3.80;;;23.40;33.70;;;;;;6261886;28;20048;-83
2022/04/28 16:02:40;;;;;;;5.22;1.45;;;23.30;33.90;;;;;;6265012;28;20080;-83
2022/04/28 16:05:42;;;;;;;3.17;1.30;;;23.30;33.80;;;;;;6263859;28;20136;-83
2022/04/28 16:08:44;;;;;;;2.78;1.77;;;23.10;34.70;;;;;;6262902;28;20044;-83
2022/04/28 16:11:48;;;;;;;4.45;1.17;;;23.30;34.40;;;;;;6264076;28;20060;-83
2022/04/28 16:14:49;;;;;;;4.60;1.35;;;23.30;33.70;;;;;;6265735;28;20053;-83
2022/04/28 16:17:52;;;;;;;1.05;0.70;;;23.20;33.60;;;;;;6264650;28;20037;-82
2022/04/28 16:20:53;;;;;;;2.28;1.13;;;22.90;34.00;;;;;;6260980;28;20111;-82
2022/04/28 16:23:55;;;;;;;3.55;1.35;;;22.60;34.40;;;;;;6258184;28;20113;-82
2022/04/28 16:26:58;;;;;;;3.08;1.50;;;22.50;34.70;;;;;;6253872;28;20056;-82
2022/04/28 16:30:00;;;;;;;2.58;1.58;;;22.30;35.80;;;;;;6261841;28;20056;-82
2022/04/28 16:33:03;;;;;;;2.90;1.38;;;22.20;35.60;;;;;;6263383;28;20117;-85